Etusivu
METAR-TAF:

METAR-TAF

Lentoasemat :

Sion, Sveitsi

Leveyspiiri: 46-13N, Pituuspiiri: 007-20E, korkeus merenpinnasta: 482 m

Tämänhetkinen sää

Tämä raportti tehtiin 31 minuuttia sitten, kello 08.20 UTC
Tuuli 5 kn lännestä, vaihdellen etelän/lounaan ja luoteen välillä
Lämpötila 21°C
Kosteus 60%
Ilmanpaine 1021 hPa
Näkyvyys 10 km tai enemmän
Muutamia pilviä 6000 ft:n korkeudessa
Hajanaisia pilviä 9000 ft:n korkeudessa

METAR: LSGS 130820Z 26005KT 210V320 9999 FEW060 SCT090 21/13 Q1021

Aika: 10:51 (08:51 UTC)

Sääennuste

Tämä raportti tehtiin 26 minuuttia sitten, kello 08.25 UTC
Ennuste voimassa 13. päivästä klo 09 UTC - 13. päivään klo 18 UTC
Tuuli 3 kn eri suunnista
Näkyvyys 10 km tai enemmän
Muutamia pilviä 6000 ft:n korkeudessa
Tulossa
13. päivästä klo 12 UTC - 13. päivään klo 14 UTC
Tuuli 12 kn lounaasta

TAF: LSGS 130825Z 1309/1318 VRB03KT 9999 FEW060 BECMG 1312/1314 23012KT

Säähavainnot ja -ennusteet yli 4000 lentoasemalta (METAR- ja TAF-raportit).

Käytössä olevat sääasemat on merkitty karttaan keltaisilla ja punaisilla pisteillä.

Aseta hiiri pisteen päälle nähdäksesi sääaseman nimen.

Klikkaa sitten nähdäksesi säähavainnot ja -ennusteet.

Kartan vaihtaminen: klikkaa mustalla rastilla varustettuja vihreitä pisteitä, niin voit zoomata sisään; viivalla varustettua vihreää pistettä, niin voit zoomata ulos tai vihreitä nuolia, niin pääset viereisille kartoille.


METAR-TAF: